createdAt,value
2022-11-17T00:01:20.141Z,6.80
2022-11-17T00:03:48.439Z,6.82
2022-11-17T00:06:15.567Z,5.57
2022-11-17T00:08:42.331Z,6.38
2022-11-17T00:11:09.622Z,7.00
2022-11-17T00:13:54.681Z,6.60
2022-11-17T00:16:22.687Z,6.60
2022-11-17T00:19:08.484Z,6.97
2022-11-17T00:21:35.293Z,7.20
2022-11-17T00:24:02.165Z,7.22
2022-11-17T00:26:31.704Z,6.60
2022-11-17T00:29:05.220Z,7.28
2022-11-17T00:31:52.193Z,7.78
2022-11-17T00:34:23.382Z,7.28
2022-11-17T00:36:54.505Z,7.75
2022-11-17T00:39:22.541Z,7.50
2022-11-17T00:41:49.387Z,8.23
2022-11-17T00:44:16.634Z,7.00
2022-11-17T00:46:43.582Z,7.75
2022-11-17T00:49:11.365Z,7.00
2022-11-17T00:51:38.500Z,7.00
2022-11-17T00:54:06.298Z,7.30
2022-11-17T00:56:33.934Z,6.93
2022-11-17T00:59:00.677Z,7.43
2022-11-17T01:01:27.588Z,7.32
2022-11-17T01:04:03.658Z,8.05
2022-11-17T01:06:33.480Z,7.85
2022-11-17T01:09:21.178Z,7.68
2022-11-17T01:11:49.632Z,6.97
2022-11-17T01:14:22.387Z,6.90
2022-11-17T01:16:49.114Z,7.50
2022-11-17T01:19:17.199Z,6.78
2022-11-17T01:21:43.963Z,7.65
2022-11-17T01:24:11.696Z,6.55
2022-11-17T01:26:39.002Z,6.97
2022-11-17T01:29:09.024Z,6.65
2022-11-17T01:31:39.176Z,6.97
2022-11-17T01:34:06.583Z,6.60
2022-11-17T01:36:55.033Z,7.65
2022-11-17T01:39:22.454Z,6.85
2022-11-17T01:41:50.194Z,6.20
2022-11-17T01:44:41.867Z,7.43
2022-11-17T01:47:20.336Z,8.30
2022-11-17T01:49:48.250Z,7.43
2022-11-17T01:52:15.169Z,7.20
2022-11-17T01:54:43.634Z,6.68
2022-11-17T01:57:14.106Z,8.48
2022-11-17T01:59:55.129Z,7.43
2022-11-17T02:02:21.973Z,7.57
2022-11-17T02:04:56.213Z,7.82
2022-11-17T02:07:26.989Z,6.88
2022-11-17T02:09:54.696Z,8.15
2022-11-17T02:12:22.403Z,6.85
2022-11-17T02:14:49.958Z,7.55
2022-11-17T02:17:17.519Z,8.00
2022-11-17T02:19:45.953Z,7.72
2022-11-17T02:22:50.725Z,6.75
2022-11-17T02:25:40.068Z,6.22
2022-11-17T02:28:13.602Z,7.25
2022-11-17T02:30:54.002Z,6.38
2022-11-17T02:33:27.051Z,7.47
2022-11-17T02:36:03.020Z,7.13
2022-11-17T02:38:44.701Z,6.50
2022-11-17T02:41:19.425Z,6.80
2022-11-17T02:44:04.022Z,7.13
2022-11-17T02:47:19.158Z,7.38
2022-11-17T02:49:49.828Z,7.05
2022-11-17T02:52:18.130Z,7.47
2022-11-17T02:54:44.708Z,7.70
2022-11-17T02:57:33.051Z,7.43
2022-11-17T03:00:04.554Z,7.43
2022-11-17T03:02:55.261Z,7.80
2022-11-17T03:05:49.906Z,7.90
2022-11-17T03:08:22.381Z,7.75
2022-11-17T03:11:02.954Z,7.82
2022-11-17T03:13:51.177Z,8.07
2022-11-17T03:16:26.460Z,7.22
2022-11-17T03:19:27.386Z,6.97
2022-11-17T03:21:59.018Z,6.13
2022-11-17T03:24:40.350Z,7.25
2022-11-17T03:27:17.100Z,7.55
2022-11-17T03:29:47.140Z,7.32
2022-11-17T03:32:14.979Z,7.25
2022-11-17T03:34:45.728Z,7.20
2022-11-17T03:37:14.215Z,7.72
2022-11-17T03:39:47.743Z,7.18
2022-11-17T03:42:24.290Z,6.80
2022-11-17T03:45:23.059Z,7.10
2022-11-17T03:47:53.607Z,6.57
2022-11-17T03:50:35.752Z,7.20
2022-11-17T03:53:03.786Z,7.75
2022-11-17T03:55:50.941Z,7.68
2022-11-17T03:58:18.961Z,6.88
2022-11-17T04:00:49.600Z,7.13
2022-11-17T04:03:16.355Z,7.15
2022-11-17T04:05:43.409Z,6.78
2022-11-17T04:08:10.310Z,7.95
2022-11-17T04:10:57.053Z,7.57
2022-11-17T04:13:41.984Z,7.80
2022-11-17T04:16:08.947Z,6.78
2022-11-17T04:18:35.786Z,7.50
2022-11-17T04:21:02.636Z,7.28
2022-11-17T04:23:29.457Z,6.55
2022-11-17T04:26:15.465Z,7.55
2022-11-17T04:28:48.251Z,7.13
2022-11-17T04:31:14.970Z,6.40
2022-11-17T04:33:44.083Z,7.78
2022-11-17T04:36:12.446Z,7.78
2022-11-17T04:38:49.643Z,6.68
2022-11-17T04:41:35.995Z,6.95
2022-11-17T04:44:03.635Z,6.85
2022-11-17T04:46:31.981Z,7.05
2022-11-17T04:48:59.140Z,7.00
2022-11-17T04:51:26.579Z,7.38
2022-11-17T04:53:53.584Z,7.35
2022-11-17T04:56:21.790Z,7.30
2022-11-17T04:58:49.067Z,7.95
2022-11-17T05:01:17.653Z,7.35
2022-11-17T05:03:45.557Z,7.85
2022-11-17T05:06:17.661Z,7.32
2022-11-17T05:08:44.919Z,8.15
2022-11-17T05:11:31.334Z,7.35
2022-11-17T05:13:58.405Z,7.78
2022-11-17T05:16:43.960Z,7.43
2022-11-17T05:19:13.762Z,7.35
2022-11-17T05:21:40.462Z,7.28
2022-11-17T05:24:08.097Z,8.13
2022-11-17T05:26:36.849Z,7.78
2022-11-17T05:29:06.068Z,8.32
2022-11-17T05:31:33.538Z,8.73
2022-11-17T05:34:01.088Z,8.10
2022-11-17T05:36:28.619Z,8.32
2022-11-17T05:38:55.669Z,7.80
2022-11-17T05:41:23.140Z,8.30
2022-11-17T05:43:50.680Z,7.43
2022-11-17T05:46:21.260Z,8.27
2022-11-17T05:48:50.226Z,8.90
2022-11-17T05:51:18.599Z,8.15
2022-11-17T05:53:45.185Z,8.40
2022-11-17T05:56:30.728Z,8.05
2022-11-17T05:59:12.030Z,8.20
2022-11-17T06:01:44.439Z,8.10
2022-11-17T06:04:11.406Z,8.18
2022-11-17T06:06:38.477Z,8.50
2022-11-17T06:09:05.408Z,7.47
2022-11-17T06:11:32.174Z,9.05
2022-11-17T06:13:59.017Z,8.10
2022-11-17T06:16:29.843Z,8.45
2022-11-17T06:19:10.195Z,7.85
2022-11-17T06:21:56.799Z,7.18
2022-11-17T06:24:23.892Z,7.45
2022-11-17T06:26:50.791Z,8.00
2022-11-17T06:29:17.493Z,7.75
2022-11-17T06:31:45.025Z,8.40
2022-11-17T06:34:12.248Z,9.32
2022-11-17T06:36:39.290Z,7.53
2022-11-17T06:39:05.933Z,8.23
2022-11-17T06:41:32.697Z,8.00
2022-11-17T06:43:59.427Z,8.07
2022-11-17T06:46:38.390Z,7.47
2022-11-17T06:49:06.881Z,7.15
2022-11-17T06:51:38.907Z,8.10
2022-11-17T06:54:10.131Z,7.90
2022-11-17T06:56:36.905Z,7.93
2022-11-17T06:59:04.046Z,8.27
2022-11-17T07:01:30.821Z,8.50
2022-11-17T07:03:57.739Z,8.02
2022-11-17T07:06:24.485Z,7.25
2022-11-17T07:08:51.189Z,7.65
2022-11-17T07:11:18.264Z,8.02
2022-11-17T07:13:45.205Z,6.82
2022-11-17T07:16:21.737Z,7.20
2022-11-17T07:18:50.537Z,7.22
2022-11-17T07:21:18.400Z,7.78
2022-11-17T07:23:46.128Z,7.72
2022-11-17T07:26:13.232Z,8.13
2022-11-17T07:28:40.055Z,7.68
2022-11-17T07:31:08.283Z,7.72
2022-11-17T07:33:37.257Z,7.40
2022-11-17T07:36:09.908Z,7.57
2022-11-17T07:38:38.382Z,7.32
2022-11-17T07:41:06.508Z,6.90
2022-11-17T07:43:34.148Z,7.65
2022-11-17T07:46:14.479Z,7.90
2022-11-17T07:48:42.704Z,7.07
2022-11-17T07:51:09.707Z,6.80
2022-11-17T07:53:36.801Z,7.20
2022-11-17T07:56:08.781Z,7.05
2022-11-17T07:58:36.480Z,6.70
2022-11-17T08:01:07.278Z,7.13
2022-11-17T08:03:34.016Z,7.75
2022-11-17T08:06:08.065Z,7.32
2022-11-17T08:08:35.603Z,7.38
2022-11-17T08:11:06.611Z,7.38
2022-11-17T08:13:34.165Z,7.15
2022-11-17T08:16:01.617Z,7.13
2022-11-17T08:18:29.038Z,6.78
2022-11-17T08:21:13.908Z,6.65
2022-11-17T08:23:42.015Z,6.60
2022-11-17T08:26:10.041Z,7.45
2022-11-17T08:28:38.143Z,6.25
2022-11-17T08:31:06.407Z,6.40
2022-11-17T08:33:33.762Z,6.28
2022-11-17T08:36:02.231Z,7.38
2022-11-17T08:38:29.633Z,7.55
2022-11-17T08:41:01.463Z,6.95
2022-11-17T08:43:28.348Z,7.10
2022-11-17T08:45:55.161Z,6.95
2022-11-17T08:48:21.984Z,6.85
2022-11-17T08:50:49.054Z,6.80
2022-11-17T08:53:18.213Z,6.85
2022-11-17T08:55:45.306Z,7.50
2022-11-17T08:58:12.518Z,7.22
2022-11-17T09:00:40.704Z,8.20
2022-11-17T09:03:09.237Z,7.70
2022-11-17T09:05:47.313Z,8.15
2022-11-17T09:11:10.436Z,6.43
2022-11-17T09:13:38.367Z,7.70
2022-11-17T09:16:10.924Z,8.00
2022-11-17T09:18:39.323Z,7.85
2022-11-17T09:21:08.658Z,8.00
2022-11-17T09:23:36.054Z,8.75
2022-11-17T09:26:07.549Z,8.23
2022-11-17T09:28:34.748Z,8.65
2022-11-17T09:31:09.854Z,7.90
2022-11-17T09:33:37.175Z,8.45
2022-11-17T09:36:04.360Z,8.55
2022-11-17T09:38:31.057Z,8.52
2022-11-17T09:40:59.177Z,8.68
2022-11-17T09:43:28.744Z,8.77
2022-11-17T09:46:04.508Z,8.70
2022-11-17T09:48:55.912Z,8.63
2022-11-17T09:51:24.470Z,9.63
2022-11-17T09:53:52.596Z,9.52
2022-11-17T09:56:19.719Z,8.48
2022-11-17T09:58:52.989Z,10.07
2022-11-17T10:01:22.402Z,10.20
2022-11-17T10:03:51.141Z,9.73
2022-11-17T10:06:21.358Z,9.52
2022-11-17T10:09:06.840Z,9.55
2022-11-17T10:11:39.965Z,10.05
2022-11-17T10:14:10.911Z,10.20
2022-11-17T10:16:38.879Z,9.73
2022-11-17T10:19:19.337Z,9.95
2022-11-17T10:22:10.859Z,9.27
2022-11-17T10:24:44.565Z,9.60
2022-11-17T10:27:27.480Z,10.45
2022-11-17T10:30:26.287Z,9.98
2022-11-17T10:32:58.446Z,9.13
2022-11-17T10:35:28.423Z,10.80
2022-11-17T10:38:08.324Z,10.05
2022-11-17T10:40:40.797Z,10.43
2022-11-17T10:43:13.575Z,9.95
2022-11-17T10:45:49.223Z,10.32
2022-11-17T10:48:30.702Z,10.27
2022-11-17T10:51:05.375Z,9.38
2022-11-17T10:53:46.823Z,10.35
2022-11-17T10:56:17.394Z,9.70
2022-11-17T10:59:04.306Z,9.13
2022-11-17T11:01:35.804Z,9.10
2022-11-17T11:04:04.286Z,9.40
2022-11-17T11:06:32.766Z,9.75
2022-11-17T11:09:31.779Z,8.98
2022-11-17T11:12:00.303Z,8.98
2022-11-17T11:14:39.277Z,8.70
2022-11-17T11:17:16.568Z,8.77
2022-11-17T11:19:52.778Z,8.50
2022-11-17T11:22:36.619Z,9.57
2022-11-17T11:25:15.823Z,8.35
2022-11-17T11:28:30.836Z,8.65
2022-11-17T11:31:21.835Z,8.70
2022-11-17T11:34:01.372Z,8.07
2022-11-17T11:36:48.903Z,8.63
2022-11-17T11:39:36.896Z,8.00
2022-11-17T11:42:08.281Z,9.10
2022-11-17T11:45:04.456Z,9.02
2022-11-17T11:48:08.294Z,9.60
2022-11-17T11:50:48.969Z,8.50
2022-11-17T11:53:22.567Z,8.40
2022-11-17T11:55:53.293Z,8.05
2022-11-17T11:58:22.528Z,8.30
2022-11-17T12:01:03.935Z,7.75
2022-11-17T12:03:36.912Z,8.27
2022-11-17T12:06:36.475Z,8.38
2022-11-17T12:09:29.938Z,7.65
2022-11-17T12:12:03.313Z,7.70
2022-11-17T12:14:36.297Z,8.10
2022-11-17T12:17:25.530Z,8.27
2022-11-17T12:19:57.432Z,7.65
2022-11-17T12:22:29.774Z,7.85
2022-11-17T12:25:15.549Z,7.97
2022-11-17T12:27:48.495Z,7.30
2022-11-17T12:30:33.594Z,7.40
2022-11-17T12:33:04.289Z,8.02
2022-11-17T12:35:35.804Z,8.45
2022-11-17T12:38:15.360Z,6.93
2022-11-17T12:40:52.581Z,7.13
2022-11-17T12:43:23.754Z,8.52
2022-11-17T12:45:53.570Z,7.55
2022-11-17T12:48:33.603Z,7.40
2022-11-17T12:51:12.484Z,7.15
2022-11-17T12:54:16.232Z,7.47
2022-11-17T12:57:13.087Z,7.32
2022-11-17T13:00:07.838Z,7.30
2022-11-17T13:02:56.393Z,7.70
2022-11-17T13:05:25.793Z,6.90
2022-11-17T13:08:14.139Z,6.68
2022-11-17T13:10:41.863Z,6.95
2022-11-17T13:13:11.381Z,7.70
2022-11-17T13:15:38.527Z,7.63
2022-11-17T13:18:11.147Z,7.88
2022-11-17T13:20:38.933Z,7.60
2022-11-17T13:23:13.528Z,8.02
2022-11-17T13:25:40.695Z,7.43
2022-11-17T13:28:25.779Z,7.63
2022-11-17T13:30:52.451Z,7.75
2022-11-17T13:33:22.887Z,7.18
2022-11-17T13:35:51.599Z,6.47
2022-11-17T13:38:23.432Z,7.82
2022-11-17T13:40:52.648Z,7.00
2022-11-17T13:43:23.835Z,7.70
2022-11-17T13:45:51.841Z,7.93
2022-11-17T13:48:39.183Z,7.65
2022-11-17T13:51:21.872Z,7.97
2022-11-17T13:53:58.476Z,7.70
2022-11-17T13:56:49.613Z,7.35
2022-11-17T13:59:18.708Z,7.35
2022-11-17T14:01:45.882Z,7.57
2022-11-17T14:04:23.598Z,7.63
2022-11-17T14:06:57.676Z,7.65
2022-11-17T14:09:25.989Z,7.00
2022-11-17T14:11:52.688Z,7.25
2022-11-17T14:14:25.299Z,7.28
2022-11-17T14:16:52.445Z,7.30
2022-11-17T14:19:19.085Z,7.75
2022-11-17T14:22:27.718Z,8.35
2022-11-17T14:24:57.797Z,8.32
2022-11-17T14:27:27.465Z,7.60
2022-11-17T14:29:54.080Z,7.40
2022-11-17T14:32:20.828Z,8.48
2022-11-17T14:34:47.602Z,8.10
2022-11-17T14:37:14.396Z,7.53
2022-11-17T14:39:41.081Z,8.10
2022-11-17T14:42:09.235Z,7.72
2022-11-17T14:44:35.863Z,7.63
2022-11-17T14:47:02.555Z,8.25
2022-11-17T14:49:32.655Z,8.27
2022-11-17T14:51:59.496Z,7.18
2022-11-17T14:54:26.514Z,7.82
2022-11-17T14:56:53.238Z,7.55
2022-11-17T14:59:19.963Z,6.95
2022-11-17T15:01:46.579Z,7.90
2022-11-17T15:04:48.145Z,8.38
2022-11-17T15:07:02.830Z,8.10
2022-11-17T15:09:29.631Z,7.97
2022-11-17T15:11:56.301Z,8.75
2022-11-17T15:14:22.964Z,8.25
2022-11-17T15:16:49.678Z,8.05
2022-11-17T15:19:16.433Z,7.55
2022-11-17T15:21:43.119Z,7.80
2022-11-17T15:24:10.019Z,8.07
2022-11-17T15:26:36.670Z,8.38
2022-11-17T15:29:03.279Z,8.93
2022-11-17T15:31:30.057Z,8.95
2022-11-17T15:33:56.859Z,8.85
2022-11-17T15:36:24.183Z,8.68
2022-11-17T15:38:50.861Z,9.18
2022-11-17T15:41:17.587Z,9.80
2022-11-17T15:43:45.061Z,8.60
2022-11-17T15:46:16.849Z,10.52
2022-11-17T15:48:49.416Z,10.05
2022-11-17T15:51:18.177Z,9.73
2022-11-17T15:53:46.620Z,10.50
2022-11-17T15:56:19.022Z,9.75
2022-11-17T15:58:46.826Z,10.63
2022-11-17T16:01:15.954Z,10.02
2022-11-17T16:03:46.469Z,10.75
2022-11-17T16:06:13.155Z,10.65
2022-11-17T16:08:40.161Z,11.50
2022-11-17T16:11:07.486Z,11.57
2022-11-17T16:13:34.433Z,12.02
2022-11-17T16:16:01.604Z,11.18
2022-11-17T16:18:29.003Z,10.90
2022-11-17T16:21:04.710Z,11.65
2022-11-17T16:23:38.000Z,11.48
2022-11-17T16:26:05.005Z,11.75
2022-11-17T16:28:31.633Z,11.95
2022-11-17T16:30:58.620Z,12.00
2022-11-17T16:33:25.516Z,11.50
2022-11-17T16:35:52.289Z,11.15
2022-11-17T16:38:19.077Z,11.55
2022-11-17T16:40:45.918Z,11.98
2022-11-17T16:43:13.820Z,11.70
2022-11-17T16:45:45.172Z,11.25
2022-11-17T16:48:13.090Z,11.35
2022-11-17T16:50:41.296Z,11.30
2022-11-17T16:53:08.549Z,11.05
2022-11-17T16:55:36.527Z,11.88
2022-11-17T16:58:04.499Z,11.60
2022-11-17T17:00:31.861Z,11.00
2022-11-17T17:02:58.710Z,10.77
2022-11-17T17:05:25.658Z,11.02
2022-11-17T17:07:52.383Z,11.50
2022-11-17T17:10:19.170Z,10.93
2022-11-17T17:12:46.284Z,10.35
2022-11-17T17:15:13.306Z,10.75
2022-11-17T17:17:40.177Z,10.77
2022-11-17T17:20:07.547Z,10.80
2022-11-17T17:22:34.249Z,10.50
2022-11-17T17:25:00.886Z,10.95
2022-11-17T17:27:30.621Z,10.45
2022-11-17T17:30:00.334Z,10.85
2022-11-17T17:32:26.946Z,10.02
2022-11-17T17:34:53.854Z,12.10
2022-11-17T17:37:20.552Z,10.77
2022-11-17T17:39:47.480Z,11.60
2022-11-17T17:42:14.259Z,10.93
2022-11-17T17:44:41.359Z,10.75
2022-11-17T17:47:08.207Z,10.20
2022-11-17T17:49:34.971Z,11.27
2022-11-17T17:52:01.882Z,10.85
2022-11-17T17:54:28.561Z,11.05
2022-11-17T17:56:57.543Z,11.20
2022-11-17T17:59:24.159Z,11.73
2022-11-17T18:01:51.810Z,10.23
2022-11-17T18:04:18.589Z,12.02
2022-11-17T18:06:49.113Z,12.15
2022-11-17T18:09:19.737Z,13.50
2022-11-17T18:11:50.299Z,12.15
2022-11-17T18:14:21.429Z,12.48
2022-11-17T18:16:49.608Z,12.98
2022-11-17T18:19:17.395Z,13.15
2022-11-17T18:21:44.847Z,12.90
2022-11-17T18:24:12.852Z,14.23
2022-11-17T18:26:41.165Z,12.55
2022-11-17T18:29:12.076Z,13.57
2022-11-17T18:31:38.950Z,12.82
2022-11-17T18:34:33.364Z,13.15
2022-11-17T18:37:00.142Z,13.50
2022-11-17T18:39:28.654Z,12.43
2022-11-17T18:41:56.384Z,13.60
2022-11-17T18:44:23.287Z,13.65
2022-11-17T18:46:50.385Z,14.30
2022-11-17T18:49:17.995Z,14.65
2022-11-17T18:51:45.190Z,13.13
2022-11-17T18:54:13.203Z,13.68
2022-11-17T18:56:40.833Z,12.50
2022-11-17T18:59:15.434Z,13.93
2022-11-17T19:01:44.067Z,13.80
2022-11-17T19:04:12.948Z,13.90
2022-11-17T19:06:39.807Z,13.68
2022-11-17T19:09:07.168Z,13.35
2022-11-17T19:11:34.992Z,13.65
2022-11-17T19:14:04.311Z,13.73
2022-11-17T19:16:32.304Z,14.07
2022-11-17T19:18:59.605Z,13.73
2022-11-17T19:21:31.803Z,13.65
2022-11-17T19:24:01.288Z,14.52
2022-11-17T19:26:30.718Z,13.93
2022-11-17T19:28:59.274Z,12.35
2022-11-17T19:31:26.720Z,13.75
2022-11-17T19:33:54.186Z,14.20
2022-11-17T19:36:23.791Z,13.18
2022-11-17T19:38:51.988Z,13.90
2022-11-17T19:41:21.390Z,14.25
2022-11-17T19:43:48.359Z,13.07
2022-11-17T19:46:17.292Z,12.10
2022-11-17T19:48:44.415Z,14.18
2022-11-17T19:51:23.266Z,13.13
2022-11-17T19:53:51.977Z,14.60
2022-11-17T19:56:19.021Z,13.70
2022-11-17T19:58:46.675Z,13.48
2022-11-17T20:01:15.838Z,14.13
2022-11-17T20:03:43.075Z,14.20
2022-11-17T20:06:11.670Z,14.05
2022-11-17T20:08:39.130Z,14.60
2022-11-17T20:11:12.904Z,15.15
2022-11-17T20:13:39.779Z,15.23
2022-11-17T20:16:12.433Z,14.85
2022-11-17T20:18:42.808Z,15.20
2022-11-17T20:21:10.835Z,14.65
2022-11-17T20:23:38.316Z,16.00
2022-11-17T20:26:06.496Z,16.20
2022-11-17T20:28:35.069Z,15.13
2022-11-17T20:31:15.989Z,16.25
2022-11-17T20:33:43.670Z,16.83
2022-11-17T20:36:14.024Z,16.17
2022-11-17T20:38:41.382Z,16.00
2022-11-17T20:41:08.832Z,14.75
2022-11-17T20:43:36.111Z,17.15
2022-11-17T20:46:03.829Z,15.73
2022-11-17T20:48:31.822Z,14.65
2022-11-17T20:51:00.438Z,14.15
2022-11-17T20:53:27.657Z,16.05
2022-11-17T20:55:58.227Z,15.75
2022-11-17T20:58:31.141Z,16.02
2022-11-17T21:00:58.261Z,16.42
2022-11-17T21:03:26.850Z,16.52
2022-11-17T21:05:59.174Z,15.68
2022-11-17T21:08:27.503Z,14.43
2022-11-17T21:11:02.298Z,15.00
2022-11-17T21:13:30.458Z,15.07
2022-11-17T21:16:04.428Z,16.02
2022-11-17T21:18:31.174Z,14.57
2022-11-17T21:21:01.887Z,15.45
2022-11-17T21:23:28.679Z,14.82
2022-11-17T21:25:55.239Z,15.50
2022-11-17T21:28:22.138Z,14.73
2022-11-17T21:30:49.002Z,15.35
2022-11-17T21:33:15.748Z,14.77
2022-11-17T21:35:42.806Z,15.18
2022-11-17T21:38:11.271Z,14.30
2022-11-17T21:40:37.978Z,13.98
2022-11-17T21:43:05.407Z,14.98
2022-11-17T21:45:33.266Z,14.40
2022-11-17T21:47:59.995Z,14.48
2022-11-17T21:50:26.888Z,14.23
2022-11-17T21:52:53.756Z,14.73
2022-11-17T21:55:20.533Z,14.82
2022-11-17T21:57:50.385Z,14.30
2022-11-17T22:00:18.081Z,13.50
2022-11-17T22:02:44.805Z,13.75
2022-11-17T22:05:11.795Z,13.48
2022-11-17T22:07:38.545Z,14.43
2022-11-17T22:10:05.849Z,13.75
2022-11-17T22:12:32.544Z,14.27
2022-11-17T22:14:59.386Z,13.50
2022-11-17T22:17:26.038Z,14.00
2022-11-17T22:19:52.733Z,13.52
2022-11-17T22:22:19.382Z,14.73
2022-11-17T22:24:49.732Z,13.30
2022-11-17T22:27:16.859Z,14.23
2022-11-17T22:29:46.317Z,13.98
2022-11-17T22:32:12.969Z,14.40
2022-11-17T22:34:39.744Z,14.23
2022-11-17T22:37:06.587Z,14.05
2022-11-17T22:39:33.183Z,14.85
2022-11-17T22:42:00.162Z,13.55
2022-11-17T22:44:26.768Z,13.95
2022-11-17T22:46:53.350Z,13.40
2022-11-17T22:49:20.189Z,15.00
2022-11-17T22:52:05.936Z,13.07
2022-11-17T22:54:32.821Z,14.18
2022-11-17T22:56:59.945Z,14.82
2022-11-17T22:59:27.793Z,15.57
2022-11-17T23:01:55.338Z,13.18
2022-11-17T23:04:25.392Z,14.15
2022-11-17T23:06:52.107Z,13.35
2022-11-17T23:09:19.100Z,14.40
2022-11-17T23:11:46.106Z,14.30
2022-11-17T23:14:14.603Z,13.68
2022-11-17T23:16:41.828Z,14.50
2022-11-17T23:19:12.557Z,15.50
2022-11-17T23:21:39.643Z,15.10
2022-11-17T23:24:06.803Z,15.98
2022-11-17T23:26:33.552Z,13.88
2022-11-17T23:29:00.336Z,16.17
2022-11-17T23:31:30.026Z,15.93
2022-11-17T23:33:56.581Z,16.55
2022-11-17T23:36:23.626Z,16.83
2022-11-17T23:38:51.252Z,17.25
2022-11-17T23:41:20.568Z,16.15
2022-11-17T23:43:51.188Z,16.27
2022-11-17T23:46:20.046Z,16.67
2022-11-17T23:48:46.922Z,17.52
2022-11-17T23:51:15.991Z,17.30
2022-11-17T23:53:42.844Z,16.30
2022-11-17T23:56:10.442Z,17.83
2022-11-17T23:58:37.975Z,17.15
